Pays
Station

 

Conditions  météo  pour  El Salvador Intl. Airport/Comalapa  -  El Salvador    El Salvador

  
24 °C
    
 
 

METAR pour El Salvador Intl. Airport/Comalapa :

MSLP 200950Z 18004KT 140V210 9000 FEW020 FEW037CB 24/24 Q1008 A2979 NOSIG RMK CB S SW W

 

Voici le bulletin pour El Salvador Intl. Airport/Comalapa - El Salvador.
 
Le bulletin a été fait il y a 43 minutes, à 09:50 UTC .
Le vent soufflait à la vitesse de 2.1 mètres par seconde de Sud (180°), variant entre Sud-est (140°) et Sud/Sud-ouest (210°).
 
La température était de 24 °C, avec un point de rosée à 24 °C.
La température ressentie était de 22 °C.
 
La pression atmosphérique était de 1009 hPa.
L'humidité relative était de 100.0%.
 
Il y avait 1 à 2/8ème de nébulosité à une hauteur de 610 mètres et 1 à 2/8ème cumulonimbus de nébulosité à une hauteur de 1128 mètres.
 
La visibilité globale était de 9.0 kilomètres.
 

 
 
 

Pays :   A   B   C   D   E   F   G   H   I   J   K   L   M   N   O   P   Q   R   S   T   U   V   W   Y   Z

 

Partenaires :  Info Météo avec Met'info
Météo Marine avec MeteoMarine.net
Infos Site  |  Infos Légales  |  Crédits  |  Confidentialité
Contactez-nous  |  Ajouter aux favoris
© 2013-2019 METAR - Tous droits réservés